Time;durP1;ratioP1;P1;durP2;ratioP2;P2;SDS_P1;SDS_P2;PMS_P1;PMS_P2;Temp;Humidity;BMP_temperature;BMP_pressure;BME280_temperature;BME280_humidity;BME280_pressure;Samples;Min_cycle;Max_cycle;Signal;HPM_P1;HPM_P2
2023/05/30 00:01:25;;;;;;;27.38;8.70;;;;;;;9.04;100.00;162927.94;5069817;28;20064;-63
2023/05/30 00:03:50;;;;;;;30.45;10.07;;;;;;;8.96;100.00;162906.34;5069988;28;20071;-63
2023/05/30 00:06:16;;;;;;;28.27;8.88;;;;;;;9.02;100.00;162922.53;5071554;28;20035;-64
2023/05/30 00:08:42;;;;;;;46.78;9.35;;;;;;;8.99;100.00;162914.41;5068619;28;20048;-63
2023/05/30 00:11:09;;;;;;;26.63;7.63;;;;;;;8.98;100.00;162911.72;5070334;28;20059;-64
2023/05/30 00:13:35;;;;;;;29.15;9.30;;;;;;;8.96;100.00;162906.34;5069958;28;20020;-62
2023/05/30 00:16:03;;;;;;;31.77;8.23;;;;;;;8.97;100.00;162909.06;5070824;28;20032;-63
2023/05/30 00:18:34;;;;;;;24.38;9.68;;;;;;;8.95;100.00;162903.66;5070007;28;20052;-63
2023/05/30 00:21:02;;;;;;;15.27;6.22;;;;;;;8.92;100.00;162895.53;5071602;28;20021;-63
2023/05/30 00:23:28;;;;;;;17.70;5.67;;;;;;;8.90;100.00;162891.50;5069647;28;20038;-63
2023/05/30 00:25:55;;;;;;;19.45;7.45;;;;;;;8.92;100.00;162895.53;5071412;28;20107;-63
2023/05/30 00:28:22;;;;;;;36.00;9.13;;;;;;;8.89;100.00;162890.19;5069537;28;20498;-62
2023/05/30 00:30:47;;;;;;;22.85;8.48;;;;;;;8.91;100.00;162892.81;5070507;28;20028;-63
2023/05/30 00:33:13;;;;;;;18.65;6.53;;;;;;;8.85;100.00;162879.38;5071225;28;20020;-64
2023/05/30 00:35:38;;;;;;;17.70;7.13;;;;;;;8.83;100.00;162872.63;5069252;28;20048;-63
2023/05/30 00:38:04;;;;;;;20.20;5.30;;;;;;;8.78;100.00;162860.50;5070771;28;20025;-64
2023/05/30 00:40:30;;;;;;;20.10;5.32;;;;;;;8.76;100.00;162855.09;5069690;28;20037;-63
2023/05/30 00:42:55;;;;;;;13.93;5.72;;;;;;;8.76;100.00;162855.09;5070732;28;20532;-63
2023/05/30 00:45:20;;;;;;;19.98;5.78;;;;;;;8.73;100.00;162848.34;5069006;28;20040;-63
2023/05/30 00:47:47;;;;;;;20.92;6.13;;;;;;;8.75;100.00;162852.38;5070802;28;20071;-63
2023/05/30 00:50:15;;;;;;;21.83;6.82;;;;;;;8.77;100.00;162857.78;5069338;28;20499;-63
2023/05/30 00:52:40;;;;;;;22.40;7.78;;;;;;;8.69;100.00;162836.22;5069948;28;20021;-63
2023/05/30 00:55:06;;;;;;;19.20;6.50;;;;;;;8.81;100.00;162868.59;5069109;28;20036;-63
2023/05/30 00:57:33;;;;;;;29.38;10.63;;;;;;;8.84;100.00;162876.66;5069409;28;20438;-63
2023/05/30 01:00:00;;;;;;;28.27;8.20;;;;;;;8.87;100.00;162884.78;5068804;28;20410;-63
2023/05/30 01:02:25;;;;;;;26.50;7.47;;;;;;;8.91;100.00;162894.22;5070825;28;20052;-64
2023/05/30 01:04:51;;;;;;;25.50;7.53;;;;;;;8.97;100.00;162910.38;5068949;28;20478;-64
2023/05/30 01:07:16;;;;;;;16.65;6.25;;;;;;;8.97;100.00;162909.06;5070400;28;20028;-63
2023/05/30 01:09:42;;;;;;;19.50;7.07;;;;;;;9.01;100.00;162919.81;5068561;28;20059;-64
2023/05/30 01:12:16;;;;;;;33.15;9.40;;;;;;;9.05;100.00;162930.59;5070594;28;20052;-63
2023/05/30 01:15:10;;;;;;;42.35;14.70;;;;;;;9.10;100.00;162942.72;5068797;28;20038;-64
2023/05/30 01:17:49;;;;;;;34.78;8.45;;;;;;;9.12;100.00;162948.13;5070631;28;20488;-64
2023/05/30 01:20:18;;;;;;;14.48;6.35;;;;;;;9.17;100.00;162961.59;5072818;28;20033;-63
2023/05/30 01:23:02;;;;;;;15.52;7.60;;;;;;;9.20;100.00;162971.03;5074512;28;20020;-64
2023/05/30 01:25:46;;;;;;;36.47;8.93;;;;;;;9.28;100.00;162989.91;5073378;28;20123;-64
2023/05/30 01:28:12;;;;;;;32.47;7.43;;;;;;;9.25;100.00;162981.84;5074670;28;20471;-64
2023/05/30 01:30:46;;;;;;;25.60;10.70;;;;;;;9.33;100.00;163003.44;5072582;28;20036;-64
2023/05/30 01:33:13;;;;;;;13.48;5.80;;;;;;;9.36;100.00;163012.88;5074731;28;20027;-64
2023/05/30 01:35:43;;;;;;;28.10;7.05;;;;;;;9.39;100.00;163018.25;5072426;28;20577;-64
2023/05/30 01:38:08;;;;;;;15.48;6.15;;;;;;;9.41;100.00;163025.03;5073966;28;20115;-64
2023/05/30 01:40:35;;;;;;;28.70;8.90;;;;;;;9.47;100.00;163041.22;5072877;28;20036;-64
2023/05/30 01:43:19;;;;;;;17.65;6.85;;;;;;;9.51;100.00;163051.97;5074380;28;20502;-64
2023/05/30 01:45:52;;;;;;;21.30;5.75;;;;;;;9.46;100.00;163038.50;5072495;28;20047;-65
2023/05/30 01:48:45;;;;;;;20.33;6.47;;;;;;;9.49;100.00;163045.25;5074321;28;20085;-65
2023/05/30 01:51:15;;;;;;;14.77;5.45;;;;;;;9.48;100.00;163042.53;5072686;28;20090;-65
2023/05/30 01:53:45;;;;;;;19.48;6.35;;;;;;;9.47;100.00;163041.22;5072344;28;20037;-65
2023/05/30 01:56:13;;;;;;;18.38;5.38;;;;;;;9.46;100.00;163038.50;5074212;28;20024;-66
2023/05/30 01:58:39;;;;;;;22.15;10.38;;;;;;;9.47;100.00;163039.81;5072356;28;20104;-66
2023/05/30 02:01:06;;;;;;;25.33;7.97;;;;;;;9.45;100.00;163035.81;5073708;28;20075;-66
2023/05/30 02:03:31;;;;;;;17.15;5.93;;;;;;;9.51;100.00;163051.97;5072283;28;20079;-65
2023/05/30 02:05:57;;;;;;;15.57;6.88;;;;;;;9.56;100.00;163062.78;5073553;28;20447;-65
2023/05/30 02:08:22;;;;;;;18.20;9.05;;;;;;;9.57;100.00;163066.81;5071896;28;20037;-65
2023/05/30 02:10:47;;;;;;;15.93;5.95;;;;;;;9.59;100.00;163070.84;5073643;28;20078;-66
2023/05/30 02:13:13;;;;;;;21.75;8.50;;;;;;;9.61;100.00;163076.28;5073895;28;20032;-65
2023/05/30 02:15:38;;;;;;;17.67;6.57;;;;;;;9.57;100.00;163065.50;5071547;28;20040;-64
2023/05/30 02:18:05;;;;;;;17.27;5.82;;;;;;;9.60;100.00;163073.56;5073733;28;20379;-65
2023/05/30 02:20:30;;;;;;;15.93;7.00;;;;;;;9.58;100.00;163069.53;5072223;28;20048;-64
2023/05/30 02:22:56;;;;;;;18.27;5.30;;;;;;;9.62;100.00;163078.97;5073169;28;20114;-65
2023/05/30 02:25:21;;;;;;;19.65;5.97;;;;;;;9.57;100.00;163065.50;5072312;28;20059;-64
2023/05/30 02:27:50;;;;;;;9.45;5.50;;;;;;;9.62;100.00;163078.97;5073292;28;20024;-65
2023/05/30 02:30:16;;;;;;;10.48;6.25;;;;;;;9.66;100.00;163089.75;5070550;28;20403;-64
2023/05/30 02:32:42;;;;;;;12.95;5.25;;;;;;;9.61;100.00;163076.28;5073562;28;20025;-64
2023/05/30 02:35:07;;;;;;;26.83;7.00;;;;;;;9.61;100.00;163076.28;5071776;28;20048;-64
2023/05/30 02:37:33;;;;;;;9.35;5.10;;;;;;;9.56;100.00;163064.13;5072819;28;20020;-63
2023/05/30 02:39:58;;;;;;;22.77;6.45;;;;;;;9.55;100.00;163061.41;5071759;28;20449;-64
2023/05/30 02:42:23;;;;;;;13.23;6.20;;;;;;;9.57;100.00;163065.50;5073323;28;20055;-64
2023/05/30 02:44:49;;;;;;;18.67;6.13;;;;;;;9.49;100.00;163046.56;5071402;28;20123;-64
2023/05/30 02:47:14;;;;;;;20.05;6.05;;;;;;;9.57;100.00;163065.50;5073462;28;20020;-64
2023/05/30 02:49:40;;;;;;;17.48;7.63;;;;;;;9.56;100.00;163062.78;5071420;28;20072;-65
2023/05/30 02:52:06;;;;;;;19.60;5.85;;;;;;;9.53;100.00;163057.38;5072947;28;20028;-64
2023/05/30 02:54:31;;;;;;;26.17;8.20;;;;;;;9.54;100.00;163058.72;5071571;28;20036;-64
2023/05/30 02:56:57;;;;;;;27.10;7.63;;;;;;;9.56;100.00;163062.78;5072879;28;20082;-65
2023/05/30 02:59:22;;;;;;;18.83;5.82;;;;;;;9.57;100.00;163065.50;5071125;28;20123;-64
2023/05/30 03:01:48;;;;;;;12.52;5.97;;;;;;;9.59;100.00;163072.25;5072712;28;20037;-64
2023/05/30 03:04:13;;;;;;;22.67;6.53;;;;;;;9.63;100.00;163081.69;5071394;28;20131;-64
2023/05/30 03:06:40;;;;;;;26.25;7.10;;;;;;;9.55;100.00;163060.09;5072310;28;20032;-64
2023/05/30 03:09:05;;;;;;;20.10;8.40;;;;;;;9.58;100.00;163068.16;5071376;28;20037;-64
2023/05/30 03:11:31;;;;;;;13.75;6.57;;;;;;;9.59;100.00;163072.25;5072852;28;20051;-63
2023/05/30 03:13:56;;;;;;;20.13;8.27;;;;;;;9.60;100.00;163074.94;5071023;28;20090;-63
2023/05/30 03:16:21;;;;;;;11.25;5.38;;;;;;;9.66;100.00;163089.75;5072603;28;20074;-63
2023/05/30 03:18:49;;;;;;;21.85;6.72;;;;;;;9.60;100.00;163073.56;5071001;28;20040;-63
2023/05/30 03:21:15;;;;;;;23.42;7.72;;;;;;;9.61;100.00;163077.59;5072332;28;20020;-65
2023/05/30 03:23:40;;;;;;;18.65;5.55;;;;;;;9.62;100.00;163078.97;5070825;28;20120;-63
2023/05/30 03:26:06;;;;;;;18.55;6.25;;;;;;;9.63;100.00;163081.69;5072319;28;20050;-63
2023/05/30 03:28:32;;;;;;;15.55;5.53;;;;;;;9.66;100.00;163089.75;5070287;28;20020;-63
2023/05/30 03:30:57;;;;;;;13.50;6.32;;;;;;;9.65;100.00;163088.41;5072111;28;20039;-63
2023/05/30 03:33:23;;;;;;;20.35;6.65;;;;;;;9.67;100.00;163092.44;5070922;28;20530;-64
2023/05/30 03:35:48;;;;;;;13.07;5.68;;;;;;;9.67;100.00;163092.44;5071864;28;20031;-62
2023/05/30 03:38:14;;;;;;;15.05;6.15;;;;;;;9.65;100.00;163088.41;5072192;28;20593;-62
2023/05/30 03:40:39;;;;;;;13.48;4.88;;;;;;;9.65;100.00;163087.03;5070476;28;20051;-62
2023/05/30 03:43:05;;;;;;;20.45;7.50;;;;;;;9.69;100.00;163097.84;5071682;28;20379;-62
2023/05/30 03:45:30;;;;;;;22.25;7.00;;;;;;;9.74;100.00;163111.34;5070636;28;20040;-62
2023/05/30 03:47:55;;;;;;;16.08;6.05;;;;;;;9.73;100.00;163108.63;5071783;28;20069;-65
2023/05/30 03:50:21;;;;;;;25.73;7.03;;;;;;;9.71;100.00;163103.25;5069887;28;20164;-65
2023/05/30 03:52:46;;;;;;;21.30;9.43;;;;;;;9.73;100.00;163108.63;5071855;28;20379;-65
2023/05/30 03:55:12;;;;;;;20.60;7.22;;;;;;;9.80;100.00;163126.19;5069984;28;20043;-65
2023/05/30 03:57:37;;;;;;;12.65;6.82;;;;;;;9.82;100.00;163132.94;5071374;28;20107;-65
2023/05/30 04:00:03;;;;;;;11.15;6.55;;;;;;;9.88;100.00;163146.41;5070370;28;20048;-65
2023/05/30 04:02:28;;;;;;;20.98;7.00;;;;;;;9.89;100.00;163149.09;5071458;28;20044;-63
2023/05/30 04:04:55;;;;;;;14.23;6.28;;;;;;;9.86;100.00;163141.03;5067968;28;20106;-66
2023/05/30 04:07:20;;;;;;;16.30;7.07;;;;;;;9.86;100.00;163141.03;5070858;28;20020;-65
2023/05/30 04:09:46;;;;;;;18.88;6.38;;;;;;;9.93;100.00;163159.94;5069480;28;20044;-65
2023/05/30 04:12:11;;;;;;;19.58;6.50;;;;;;;9.90;100.00;163151.81;5057352;28;20036;-65
2023/05/30 04:14:37;;;;;;;13.85;6.22;;;;;;;10.00;100.00;163180.16;5068018;28;20033;-64
2023/05/30 04:17:02;;;;;;;16.45;8.43;;;;;;;9.98;100.00;163174.72;5070866;28;20025;-65
2023/05/30 04:19:27;;;;;;;13.50;6.80;;;;;;;10.04;100.00;163189.59;5069781;28;20044;-63
2023/05/30 04:21:53;;;;;;;15.35;5.75;;;;;;;10.04;100.00;163189.59;5070387;28;20391;-65
2023/05/30 04:24:18;;;;;;;12.07;5.20;;;;;;;10.05;100.00;163192.28;5069825;28;20032;-65
2023/05/30 04:26:48;;;;;;;15.68;6.22;;;;;;;9.96;100.00;163168.00;5071068;28;20024;-64
2023/05/30 04:29:14;;;;;;;27.60;15.18;;;;;;;10.02;100.00;163184.19;5069238;28;20040;-63
2023/05/30 04:31:39;;;;;;;20.85;7.72;;;;;;;10.01;100.00;163181.53;5070759;28;20387;-61
2023/05/30 04:34:04;;;;;;;20.00;8.00;;;;;;;9.95;100.00;163165.28;5069809;28;20035;-59
2023/05/30 04:36:32;;;;;;;9.98;5.40;;;;;;;10.03;100.00;163186.88;5070417;28;20051;-62
2023/05/30 04:38:58;;;;;;;14.77;6.88;;;;;;;9.98;100.00;163173.41;5056557;28;20040;-62
2023/05/30 04:41:27;;;;;;;14.95;6.60;;;;;;;9.94;100.00;163163.97;5071281;28;20024;-62
2023/05/30 04:43:54;;;;;;;12.93;7.00;;;;;;;9.97;100.00;163170.69;5069429;28;20029;-62
2023/05/30 04:46:23;;;;;;;21.55;7.97;;;;;;;10.06;100.00;163195.00;5070750;28;20100;-62
2023/05/30 04:48:51;;;;;;;16.70;8.27;;;;;;;10.12;100.00;163211.19;5069467;28;20041;-62
2023/05/30 04:51:17;;;;;;;21.23;9.00;;;;;;;10.14;100.00;163216.59;5070577;28;20052;-62
2023/05/30 04:53:42;;;;;;;17.48;6.35;;;;;;;10.14;100.00;163216.59;5068711;28;20495;-63
2023/05/30 04:56:08;;;;;;;14.18;7.25;;;;;;;10.18;100.00;163226.03;5070833;28;20032;-62
2023/05/30 04:58:33;;;;;;;13.77;5.32;;;;;;;10.21;100.00;163232.78;5068970;28;20074;-62
2023/05/30 05:00:58;;;;;;;12.38;6.00;;;;;;;10.30;100.00;163257.09;5070642;28;20044;-61
2023/05/30 05:03:24;;;;;;;15.40;6.93;;;;;;;10.34;100.00;163267.84;5069589;28;20016;-61
2023/05/30 05:05:50;;;;;;;34.97;7.47;;;;;;;10.36;100.00;163273.25;5069778;28;20060;-62
2023/05/30 05:08:16;;;;;;;14.00;5.03;;;;;;;10.37;100.00;163276.03;5069177;28;20066;-60
2023/05/30 05:10:41;;;;;;;12.00;6.18;;;;;;;10.37;100.00;163276.03;5070735;28;20029;-62
2023/05/30 05:13:06;;;;;;;13.18;5.50;;;;;;;10.33;100.00;163265.16;5070407;28;20031;-61
2023/05/30 05:15:32;;;;;;;15.98;8.02;;;;;;;10.34;100.00;163267.84;5067112;28;20406;-61
2023/05/30 05:17:58;;;;;;;13.80;6.85;;;;;;;10.35;100.00;163269.25;5067379;28;20067;-61
2023/05/30 05:20:24;;;;;;;17.42;5.93;;;;;;;10.40;100.00;163284.09;5068916;28;20064;-62
2023/05/30 05:22:50;;;;;;;9.38;5.50;;;;;;;10.34;100.00;163267.84;5070498;28;20029;-61
2023/05/30 05:25:15;;;;;;;11.25;5.53;;;;;;;10.34;100.00;163267.84;5067608;28;20040;-62
2023/05/30 05:27:41;;;;;;;12.15;6.57;;;;;;;10.39;100.00;163280.06;5052511;28;20029;-62
2023/05/30 05:30:08;;;;;;;19.23;6.85;;;;;;;10.36;100.00;163271.91;5048309;28;20056;-62
2023/05/30 05:32:36;;;;;;;19.77;7.05;;;;;;;10.34;100.00;163267.84;5049305;28;20056;-62
2023/05/30 05:35:02;;;;;;;17.70;5.20;;;;;;;10.35;100.00;163270.56;5063458;28;20051;-62
2023/05/30 05:37:27;;;;;;;16.75;8.10;;;;;;;10.32;100.00;163262.44;5068969;28;20020;-62
2023/05/30 05:39:53;;;;;;;21.75;6.38;;;;;;;10.31;100.00;163259.78;5068141;28;20045;-61
2023/05/30 05:42:18;;;;;;;14.98;8.02;;;;;;;10.28;100.00;163251.66;5070056;28;20032;-61
2023/05/30 05:44:43;;;;;;;25.58;6.18;;;;;;;10.32;100.00;163262.44;5068889;28;20415;-62
2023/05/30 05:47:09;;;;;;;10.43;6.57;;;;;;;10.35;100.00;163270.56;5070494;28;20028;-62
2023/05/30 05:49:34;;;;;;;17.08;6.90;;;;;;;10.35;100.00;163270.56;5068384;28;20041;-62
2023/05/30 05:51:59;;;;;;;12.98;5.93;;;;;;;10.43;100.00;163292.22;5070178;28;20380;-62
2023/05/30 05:54:25;;;;;;;18.45;6.38;;;;;;;10.50;100.00;163308.41;5068984;28;20033;-62
2023/05/30 05:56:50;;;;;;;16.20;8.38;;;;;;;10.60;100.00;163336.75;5069868;28;20082;-62
2023/05/30 05:59:16;;;;;;;19.35;7.28;;;;;;;10.71;100.00;163365.09;5067987;28;20638;-62
2023/05/30 06:01:42;;;;;;;9.00;4.80;;;;;;;10.83;100.00;163394.81;5069866;28;20117;-62
2023/05/30 06:04:11;;;;;;;21.58;7.32;;;;;;;10.85;100.00;163401.56;5068697;28;20126;-62
2023/05/30 06:06:37;;;;;;;13.55;6.93;;;;;;;10.89;100.00;163411.00;5057823;28;20029;-61
2023/05/30 06:09:03;;;;;;;14.50;7.57;;;;;;;10.96;100.00;163429.91;5037973;28;20408;-62
2023/05/30 06:11:28;;;;;;;14.40;7.07;;;;;;;10.92;100.00;163419.06;5034504;28;20400;-62
2023/05/30 06:13:54;;;;;;;18.77;5.88;;;;;;;11.04;100.00;163451.50;5057729;28;20040;-62
2023/05/30 06:16:19;;;;;;;18.17;5.95;;;;;;;11.14;100.00;163475.78;5073581;28;20617;-61
2023/05/30 06:18:44;;;;;;;16.42;6.10;;;;;;;11.31;100.00;163521.72;5071831;28;20379;-62
2023/05/30 06:21:10;;;;;;;9.90;5.38;;;;;;;11.35;100.00;163531.16;5073618;28;20032;-62
2023/05/30 06:23:36;;;;;;;13.27;4.43;;;;;;;11.65;100.00;163610.88;5071818;28;20052;-62
2023/05/30 06:26:01;;;;;;;19.42;8.00;;;;;;;11.98;100.00;163697.34;5073225;28;20024;-62
2023/05/30 06:28:27;;;;;;;10.93;4.95;;;;;;;12.28;100.00;163775.72;5071976;28;20035;-61
2023/05/30 06:30:52;;;;;;;13.32;4.68;;;;;;;12.57;100.00;163850.03;5073319;28;20024;-62
2023/05/30 06:33:18;;;;;;;15.25;6.07;;;;;;;12.83;100.00;163918.97;5071608;28;20024;-62
2023/05/30 06:35:43;;;;;;;14.40;6.57;;;;;;;12.89;100.00;163933.81;5068947;28;20028;-61
2023/05/30 06:38:08;;;;;;;10.45;5.32;;;;;;;12.91;100.00;163940.63;5071479;28;20067;-62
2023/05/30 06:40:34;;;;;;;12.05;5.65;;;;;;;12.95;100.00;163951.41;5052620;28;20040;-61
2023/05/30 06:42:59;;;;;;;10.18;5.18;;;;;;;12.61;100.00;163862.22;5053347;28;20017;-62
2023/05/30 06:45:25;;;;;;;9.23;4.20;;;;;;;12.52;100.00;163837.88;5066444;28;20106;-62
2023/05/30 06:47:50;;;;;;;16.00;5.10;;;;;;;12.49;100.00;163829.75;5072293;28;20025;-62
2023/05/30 06:50:16;;;;;;;15.23;5.07;;;;;;;12.71;100.00;163887.88;5071541;28;20040;-62
2023/05/30 06:52:41;;;;;;;17.05;4.78;;;;;;;12.66;100.00;163875.72;5066858;28;20444;-62
2023/05/30 06:55:07;;;;;;;10.82;4.35;;;;;;;12.76;100.00;163901.38;5051419;28;20508;-62
2023/05/30 06:57:36;;;;;;;12.35;5.75;;;;;;;12.74;100.00;163894.63;5052654;28;20416;-62
2023/05/30 07:00:03;;;;;;;10.98;4.97;;;;;;;12.48;100.00;163828.41;5051444;28;20033;-62
2023/05/30 07:02:28;;;;;;;11.95;4.85;;;;;;;12.06;100.00;163718.97;5052283;28;20563;-61
2023/05/30 07:04:54;;;;;;;14.60;6.90;;;;;;;11.94;100.00;163686.50;5051175;28;20048;-62
2023/05/30 07:07:19;;;;;;;16.30;5.50;;;;;;;11.75;100.00;163637.84;5053062;28;20554;-62
2023/05/30 07:09:44;;;;;;;14.90;7.05;;;;;;;11.74;100.00;163635.16;5050540;28;20033;-62
2023/05/30 07:12:10;;;;;;;11.00;4.93;;;;;;;11.74;100.00;163635.16;5052851;28;20032;-62
2023/05/30 07:14:35;;;;;;;17.13;5.38;;;;;;;11.72;100.00;163629.78;5051160;28;20040;-61
2023/05/30 07:17:01;;;;;;;19.50;7.30;;;;;;;11.72;100.00;163629.78;5051056;28;20051;-62
2023/05/30 07:19:26;;;;;;;14.23;6.15;;;;;;;11.70;100.00;163624.38;5067939;28;20106;-62
2023/05/30 07:21:51;;;;;;;16.90;6.07;;;;;;;11.83;100.00;163656.75;5072313;28;20032;-62
2023/05/30 07:24:17;;;;;;;13.13;5.25;;;;;;;12.27;100.00;163771.66;5071126;28;20037;-62
2023/05/30 07:26:42;;;;;;;11.98;5.70;;;;;;;12.41;100.00;163809.50;5072047;28;20032;-62
2023/05/30 07:29:08;;;;;;;13.52;5.35;;;;;;;12.55;100.00;163845.97;5070927;28;20090;-62
2023/05/30 07:31:33;;;;;;;13.20;6.25;;;;;;;12.54;100.00;163843.28;5071991;28;20032;-62
2023/05/30 07:33:58;;;;;;;15.77;5.60;;;;;;;12.51;100.00;163835.16;5070652;28;20032;-62
2023/05/30 07:36:24;;;;;;;10.30;5.53;;;;;;;12.53;100.00;163840.59;5072196;28;20024;-62
2023/05/30 07:38:50;;;;;;;11.63;4.82;;;;;;;12.49;100.00;163829.75;5070647;28;20613;-62
2023/05/30 07:41:15;;;;;;;19.08;5.93;;;;;;;12.44;100.00;163816.25;5071787;28;20024;-62
2023/05/30 07:43:40;;;;;;;13.32;6.22;;;;;;;12.71;100.00;163887.88;5070393;28;20032;-62
2023/05/30 07:46:06;;;;;;;13.93;6.55;;;;;;;12.67;100.00;163878.44;5072021;28;20475;-62
2023/05/30 07:48:31;;;;;;;12.52;4.70;;;;;;;12.64;100.00;163870.28;5070253;28;20028;-62
2023/05/30 07:50:57;;;;;;;17.52;4.70;;;;;;;12.69;100.00;163882.47;5066178;28;20081;-62
2023/05/30 07:53:22;;;;;;;17.30;4.25;;;;;;;12.85;100.00;163925.72;5050311;28;20087;-62
2023/05/30 07:55:47;;;;;;;11.43;5.95;;;;;;;12.97;100.00;163956.81;5051382;28;20024;-62
2023/05/30 07:58:13;;;;;;;17.50;7.82;;;;;;;12.93;100.00;163945.97;5051863;28;20024;-62
2023/05/30 08:00:38;;;;;;;12.88;5.25;;;;;;;13.12;100.00;163994.66;5049697;28;20049;-62
2023/05/30 08:03:03;;;;;;;17.92;6.07;;;;;;;13.38;100.00;164062.25;5051701;28;20430;-62
2023/05/30 08:05:29;;;;;;;14.13;4.97;;;;;;;13.54;100.00;164105.56;5050303;28;20079;-62
2023/05/30 08:07:54;;;;;;;16.67;7.85;;;;;;;13.91;100.00;164202.94;5051524;28;20032;-61
2023/05/30 08:10:20;;;;;;;10.23;5.28;;;;;;;14.37;100.00;164322.00;5049847;28;20044;-62
2023/05/30 08:12:46;;;;;;;10.00;3.72;;;;;;;14.59;100.00;164381.53;5051381;28;20040;-62
2023/05/30 08:15:11;;;;;;;12.98;5.65;;;;;;;14.85;100.00;164449.25;5050354;28;20094;-62
2023/05/30 08:17:36;;;;;;;16.08;4.65;;;;;;;14.41;100.00;164332.78;5051228;28;20051;-62
2023/05/30 08:20:03;;;;;;;11.65;4.25;;;;;;;14.49;100.00;164354.44;5049933;28;20218;-62
2023/05/30 08:22:31;;;;;;;14.98;5.45;;;;;;;14.73;100.00;164416.75;5051717;28;20033;-61
2023/05/30 08:24:59;;;;;;;10.55;5.93;;;;;;;14.71;100.00;164412.69;5049657;28;20041;-62
2023/05/30 08:27:25;;;;;;;17.33;5.90;;;;;;;14.77;100.00;164426.22;5051531;28;20056;-62
2023/05/30 08:29:50;;;;;;;17.50;6.88;;;;;;;14.80;100.00;164435.69;5048820;28;20037;-62
2023/05/30 08:32:16;;;;;;;15.07;6.43;;;;;;;15.15;100.00;164527.72;5050955;28;20488;-62
2023/05/30 08:34:43;;;;;;;14.43;4.78;;;;;;;15.18;100.00;164535.84;5049794;28;20639;-62
2023/05/30 08:37:08;;;;;;;7.53;4.00;;;;;;;15.15;100.00;164527.72;5067412;28;20052;-62
2023/05/30 08:39:33;;;;;;;16.33;6.05;;;;;;;15.34;100.00;164576.47;5068940;28;20415;-62
2023/05/30 08:41:59;;;;;;;12.55;4.95;;;;;;;15.52;100.00;164625.22;5071241;28;20029;-62
2023/05/30 08:44:25;;;;;;;17.67;5.40;;;;;;;15.53;100.00;164627.88;5063459;28;20040;-62
2023/05/30 08:46:51;;;;;;;17.70;5.35;;;;;;;15.67;100.00;164663.13;5070662;28;20036;-62
2023/05/30 08:49:21;;;;;;;12.93;4.93;;;;;;;16.47;100.00;164874.41;5069149;28;20035;-62
2023/05/30 08:51:48;;;;;;;14.10;5.55;;;;;;;16.41;100.00;164858.19;5070717;28;20020;-62
2023/05/30 08:54:21;;;;;;;19.85;6.53;;;;;;;15.82;100.00;164702.38;5069164;28;20051;-62
2023/05/30 08:56:54;;;;;;;15.93;6.97;;;;;;;15.43;100.00;164600.84;5070543;28;20021;-62
2023/05/30 08:59:21;;;;;;;17.05;5.95;;;;;;;15.10;100.00;164514.19;5069604;28;20023;-62
2023/05/30 09:01:49;;;;;;;17.92;5.10;;;;;;;14.88;100.00;164456.00;5070151;28;20048;-62
2023/05/30 09:04:15;;;;;;;25.75;5.93;;;;;;;15.05;100.00;164500.66;5069286;28;20475;-62
2023/05/30 09:06:41;;;;;;;18.73;5.00;;;;;;;15.19;100.00;164538.56;5070512;28;20024;-62
2023/05/30 09:09:09;;;;;;;10.00;4.18;;;;;;;15.62;100.00;164649.53;5068973;28;20468;-58
2023/05/30 09:11:35;;;;;;;9.23;4.22;;;;;;;15.96;100.00;164739.00;5070578;28;20433;-62
2023/05/30 09:14:01;;;;;;;10.20;3.35;;;;;;;15.68;100.00;164665.78;5070726;28;20091;-62
2023/05/30 09:16:26;;;;;;;10.35;6.20;;;;;;;15.66;100.00;164660.41;5068875;28;20385;-62
2023/05/30 09:18:52;;;;;;;7.97;4.65;;;;;;;15.55;100.00;164633.31;5070342;28;20028;-62
2023/05/30 09:21:17;;;;;;;11.18;4.22;;;;;;;15.75;100.00;164684.75;5069342;28;20044;-63
2023/05/30 09:23:42;;;;;;;11.05;4.65;;;;;;;15.78;100.00;164692.88;5070118;28;20058;-62
2023/05/30 09:26:13;;;;;;;7.40;4.22;;;;;;;16.03;100.00;164757.94;5068881;28;20040;-62
2023/05/30 09:28:38;;;;;;;14.07;5.53;;;;;;;16.48;100.00;164877.13;5068842;28;20036;-62
2023/05/30 09:31:04;;;;;;;13.43;3.85;;;;;;;17.08;100.00;165034.34;5070374;28;20039;-62
2023/05/30 09:33:44;;;;;;;7.97;4.63;;;;;;;16.83;100.00;164967.84;5069195;28;20029;-62
2023/05/30 09:36:15;;;;;;;10.70;4.93;;;;;;;16.47;100.00;164874.41;5070386;28;20028;-62
2023/05/30 09:38:51;;;;;;;12.45;5.00;;;;;;;16.58;100.00;164901.47;5068875;28;20040;-62
2023/05/30 09:41:17;;;;;;;13.07;5.35;;;;;;;16.35;100.00;164841.88;5074190;28;20016;-62
2023/05/30 09:43:42;;;;;;;9.60;3.72;;;;;;;16.47;100.00;164874.41;5066373;28;20102;-62
2023/05/30 09:46:07;;;;;;;9.77;3.85;;;;;;;16.42;100.00;164860.84;5053609;28;20017;-62
2023/05/30 09:48:33;;;;;;;14.13;5.13;;;;;;;16.41;100.00;164858.19;5052534;28;20025;-62
2023/05/30 09:51:02;;;;;;;6.75;3.28;;;;;;;16.13;100.00;164785.00;5054632;28;20031;-62
2023/05/30 09:53:30;;;;;;;10.05;4.95;;;;;;;15.96;100.00;164739.00;5052833;28;20460;-62
2023/05/30 09:55:56;;;;;;;9.98;3.38;;;;;;;15.75;100.00;164684.75;5060899;28;20020;-62
2023/05/30 09:58:22;;;;;;;12.38;5.45;;;;;;;15.86;100.00;164713.28;5072836;28;20024;-61
2023/05/30 10:00:50;;;;;;;6.40;3.83;;;;;;;16.02;100.00;164755.22;5073299;28;20048;-62
2023/05/30 10:03:15;;;;;;;7.97;4.03;;;;;;;16.44;100.00;164864.94;5074350;28;20044;-62
2023/05/30 10:05:40;;;;;;;17.50;6.43;;;;;;;16.39;100.00;164851.38;5072103;28;20540;-62
2023/05/30 10:08:07;;;;;;;9.27;3.67;;;;;;;16.78;100.00;164955.72;5072051;28;20031;-62
2023/05/30 10:10:34;;;;;;;8.32;4.57;;;;;;;16.63;100.00;164915.06;5068658;28;20165;-62
2023/05/30 10:13:00;;;;;;;8.60;6.22;;;;;;;16.53;100.00;164887.94;5062244;28;20029;-62
2023/05/30 10:15:25;;;;;;;17.25;6.30;;;;;;;16.69;100.00;164929.94;5063690;28;20380;-62
2023/05/30 10:18:08;;;;;;;10.18;4.57;;;;;;;16.91;100.00;164988.22;5071770;28;20035;-62
2023/05/30 10:20:43;;;;;;;10.43;3.95;;;;;;;16.90;100.00;164985.50;5070963;28;20048;-62
2023/05/30 10:23:12;;;;;;;5.93;4.00;;;;;;;17.41;100.00;165121.03;5072995;28;20077;-62
2023/05/30 10:25:38;;;;;;;;;;;;;;;17.65;100.00;165183.41;5070431;28;20487;-62
2023/05/30 10:28:06;;;;;;;6.70;4.20;;;;;;;17.66;100.00;165186.13;5072948;28;20006;-61
2023/05/30 10:30:33;;;;;;;14.38;5.25;;;;;;;18.05;100.00;165289.22;5070602;28;20036;-62
2023/05/30 10:33:09;;;;;;;9.95;4.68;;;;;;;17.90;100.00;165248.47;5072337;28;20028;-62
2023/05/30 10:35:35;;;;;;;13.02;3.70;;;;;;;17.48;100.00;165137.28;5071416;28;20041;-61
2023/05/30 10:38:04;;;;;;;7.43;3.60;;;;;;;17.30;100.00;165091.25;5072677;28;20107;-62
2023/05/30 10:40:57;;;;;;;10.45;3.55;;;;;;;17.24;100.00;165074.94;5070523;28;20044;-62
2023/05/30 10:43:40;;;;;;;10.32;3.85;;;;;;;17.46;100.00;165131.91;5071701;28;20024;-62
2023/05/30 10:46:25;;;;;;;11.00;4.40;;;;;;;17.62;100.00;165173.91;5072405;28;20058;-61
2023/05/30 10:48:53;;;;;;;8.18;3.53;;;;;;;17.07;100.00;165031.63;5070613;28;20049;-61
2023/05/30 10:51:19;;;;;;;3.67;3.10;;;;;;;17.15;100.00;165050.59;5072066;28;20040;-62
2023/05/30 10:53:46;;;;;;;12.65;4.32;;;;;;;17.34;100.00;165102.06;5070840;28;20036;-62
2023/05/30 10:56:34;;;;;;;12.10;4.50;;;;;;;17.16;100.00;165053.31;5072693;28;20105;-62
2023/05/30 10:59:10;;;;;;;;;;;;;;;17.22;100.00;165069.56;5051936;28;20407;-61
2023/05/30 11:01:36;;;;;;;10.90;3.75;;;;;;;17.38;100.00;165112.94;5052432;28;19917;-62
2023/05/30 11:04:04;;;;;;;4.55;3.33;;;;;;;17.43;100.00;165126.47;5051279;28;20029;-62
2023/05/30 11:06:33;;;;;;;7.88;3.53;;;;;;;17.37;100.00;165110.22;5052726;28;20031;-61
2023/05/30 11:09:18;;;;;;;8.45;4.32;;;;;;;17.58;100.00;165165.75;5051234;28;20041;-62
2023/05/30 11:11:54;;;;;;;8.50;4.57;;;;;;;17.65;100.00;165183.41;5052346;28;20637;-62
2023/05/30 11:14:28;;;;;;;10.82;4.60;;;;;;;18.20;100.00;165328.50;5050690;28;20186;-61